Portada
METAR-TAF:

METAR-TAF

Aeroports :

Army Air Corps Middle Wallop

Middle Wallop, Anglaterra

latitud: 51-09N, longitud: 001-34W, altitud: 91 m

Observació

L'informe es va fer fa 48 minuts, a les 06:50 UTC
Vent 13 kt del Oest
Temperatura 3°C
Humitat 81%
Pressió 1002 hPa
Visibilitat 10 km o més
Escasses núvols a una alçada de 3200 ft

METAR: EGVP 260650Z 28013KT 9999 FEW032 03/M00 Q1002 RMK BLU

Hora: 07:38 (07:38 UTC)

Pronòstic

L'informe es va fer fa 46 minuts, a les 06:52 UTC
Pronòstic vàlid del 26 a les 07 UTC al 26 a les 15 UTC
Vent 13 kt del Oest
Visibilitat 10 km o més
Escasses núvols a una alçada de 3500 ft
Temporalment
l' 26 a les 08 UTC al 26 a les 12 UTC
Vent 17 kt del Oest amb ràfegues de 27 kt
Probabilitat 30% :
Temporalment
l' 26 a les 09 UTC al 26 a les 12 UTC
Núvols disperses a una alçada de 2000 ft

TAF: EGVP 260652Z 2607/2615 27013KT 9999 FEW035 TEMPO 2608/2612 27017G27KT PROB30 TEMPO 2609/2612 SCT020

Observacions i pronòstics meteorològics de més de 4000 aeroports (METAR i TAF).

Les estacions disponibles són els punts grocs i vermells al mapa.

Posi el ratolí al punt desitjat per veure el nom de l'estació.

Feu clic per veure les observacions i els pronòstics meteorològics.

Per canviar el mapa: feu clic els botons verds amb una creu de color negre per apropar; al botó verd amb un guió per allunyar la imatge; o en les fletxes verdes per a mapes adjacents.


METAR-TAF: